WetterOnline ( https://www.wetteronline.de )

Wetter aktuell Ratzeburg

Aktuelles Wetter: Lübeck/Blankensee (15m)

6-stündlich | Neueste Meldungen
Ortszeit Temperatur Wetter
Sa, 28.11. 13:00 1.5° C bedeckt
Sa, 28.11. 7:00 -1.6° C Nebel
Sa, 28.11. 1:00 -1.4° C Nebel
Fr, 27.11. 19:00 0.6° C Nebel
Fr, 27.11. 13:00 2.2° C Nebel
Fr, 27.11. 7:00 -1.2° C Nebel
Fr, 27.11. 1:00 0.9° C Nebel
Do, 26.11. 19:00 5.5° C bedeckt
Ortszeit Temperatur Wetter
Sa, 28.11. 15:50 2° C bewölkt
Sa, 28.11. 15:30 2.3° C bedeckt
Sa, 28.11. 15:20 2.3° C bedeckt
Sa, 28.11. 15:10 2.2° C bedeckt
Sa, 28.11. 15:00 2.1° C bedeckt
Sa, 28.11. 14:50 2.1° C bedeckt
Sa, 28.11. 14:30 2.1° C bedeckt
Sa, 28.11. 14:00 2.1° C bedeckt
Sa, 28.11. 13:30 1.8° C bedeckt
Sa, 28.11. 13:00 1.5° C bedeckt
Sa, 28.11. 12:30 1.3° C bedeckt
Ortszeit Relative Feuchte Sichtweite
Sa, 28.11. 13:00 97% 28 km
Sa, 28.11. 7:00 100% 100 m
Sa, 28.11. 1:00 100% 0.9 km
Fr, 27.11. 19:00 100% 100 m
Fr, 27.11. 13:00 99% 0.5 km
Fr, 27.11. 7:00 100% <100 m
Fr, 27.11. 1:00 100% 0.3 km
Do, 26.11. 19:00 98% 19 km
Ortszeit Relative Feuchte Sichtweite
Sa, 28.11. 15:50 100% >10 km
Sa, 28.11. 15:30 95% 24 km
Sa, 28.11. 15:20 95% -
Sa, 28.11. 15:10 96% -
Sa, 28.11. 15:00 96% 26 km
Sa, 28.11. 14:50 96% -
Sa, 28.11. 14:30 96% 24 km
Sa, 28.11. 14:00 96% 26 km
Sa, 28.11. 13:30 96% 30 km
Sa, 28.11. 13:00 97% 28 km
Sa, 28.11. 12:30 99% 27 km
Ortszeit Niederschlagsmenge Niederschlagsart
Sa, 28.11. 13:00 0.0 l/m2 in 6 Std. -
Sa, 28.11. 7:00 0.0 l/m2 in 12 Std. -
Sa, 28.11. 1:00 0.0 l/m2 in 6 Std. -
Fr, 27.11. 19:00 0.0 l/m2 in 12 Std. -
Fr, 27.11. 13:00 0.0 l/m2 in 6 Std. -
Fr, 27.11. 7:00 0.0 l/m2 in 12 Std. -
Fr, 27.11. 1:00 0.0 l/m2 in 6 Std. -
Do, 26.11. 19:00 0.2 l/m2 in 12 Std. -
Ortszeit Niederschlagsmenge Niederschlagsart
Sa, 28.11. 15:50 keine Meldung -
Sa, 28.11. 15:30 0.0 l/m2 in 1 Std. -
Sa, 28.11. 15:20 keine Meldung -
Sa, 28.11. 15:10 keine Meldung -
Sa, 28.11. 15:00 0.0 l/m2 in 1 Std. -
Sa, 28.11. 14:50 keine Meldung -
Sa, 28.11. 14:30 0.0 l/m2 in 1 Std. -
Sa, 28.11. 14:00 0.0 l/m2 in 1 Std. -
Sa, 28.11. 13:30 0.0 l/m2 in 1 Std. -
Sa, 28.11. 13:00 0.0 l/m2 in 1 Std. -
Sa, 28.11. 12:30 0.0 l/m2 in 1 Std. -
Ortszeit Stärke Spitze Richtung
km/h Bft. km/h Grad Sektor
Sa, 28.11. 13:00 7 2 11 90° O
Sa, 28.11. 7:00 4 1 6 100° O
Sa, 28.11. 1:00 4 1 7 80° O
Fr, 27.11. 19:00 4 1 7 110° O
Fr, 27.11. 13:00 0 0 6 - -
Fr, 27.11. 7:00 0 0 9 - -
Fr, 27.11. 1:00 4 1 11 230° SW
Do, 26.11. 19:00 4 1 20 220° SW
Ortszeit Stärke Spitze Richtung
km/h Bft. km/h Grad Sektor
Sa, 28.11. 15:50 7 2 - 80° O
Sa, 28.11. 15:30 - - 14 - -
Sa, 28.11. 15:20 - - - - -
Sa, 28.11. 15:10 - - - - -
Sa, 28.11. 15:00 7 2 9 50° NO
Sa, 28.11. 14:50 - - - - -
Sa, 28.11. 14:30 7 2 9 60° NO
Sa, 28.11. 14:00 7 2 11 60° NO
Sa, 28.11. 13:30 - - 13 - -
Sa, 28.11. 13:00 7 2 11 90° O
Sa, 28.11. 12:30 - - 11 - -
Ortszeit Untergrenze Bedeckung Gattung
total tief tief mittel hoch
Sa, 28.11. 13:00 390 m 8/8 8/8 - - -
Sa, 28.11. 7:00 <30 m 8/8 0/8 - - -
Sa, 28.11. 1:00 <30 m 8/8 0/8 - - -
Fr, 27.11. 19:00 <30 m 8/8 0/8 - - -
Fr, 27.11. 13:00 <30 m 8/8 0/8 - - -
Fr, 27.11. 7:00 <30 m 8/8 0/8 - - -
Fr, 27.11. 1:00 <30 m 7/8 0/8 - - -
Do, 26.11. 19:00 4500 m 8/8 8/8 - - -
Ortszeit Bedeckungsgrad in Achtel und Wolkenuntergrenze
Sa, 28.11. 15:50 5-7(480m)
Sa, 28.11. 15:30 8(510m)
Sa, 28.11. 15:20 8(510m)
Sa, 28.11. 15:10 8(510m)
Sa, 28.11. 15:00 8(510m)
Sa, 28.11. 14:50 8(510m)
Sa, 28.11. 14:30 8(510m)
Sa, 28.11. 14:00 8(510m)
Sa, 28.11. 13:30 8(420m)
Sa, 28.11. 13:00 8(390m)
Sa, 28.11. 12:30 8(390m)
Ortszeit Luftdruck NN (hPa) Tendenz (hPa in 3 Std.)
Sa, 28.11. 13:00 1026 + 0,5
Sa, 28.11. 7:00 1025 + 0,5
Sa, 28.11. 1:00 1024 + 0,2
Fr, 27.11. 19:00 1023 + 0,7
Fr, 27.11. 13:00 1023 0,0
Fr, 27.11. 7:00 1022 + 0,3
Fr, 27.11. 1:00 1021 + 0,5
Do, 26.11. 19:00 1020 + 0,9
Ortszeit Luftdruck NN (hPa) Tendenz (hPa in 3 Std.)
Sa, 28.11. 15:50 1026 keine Meldung
Sa, 28.11. 15:30 1027 + 0,3
Sa, 28.11. 15:20 1027 keine Meldung
Sa, 28.11. 15:10 1027 keine Meldung
Sa, 28.11. 15:00 1026 + 0,2
Sa, 28.11. 14:50 1026 keine Meldung
Sa, 28.11. 14:30 1026 + 0,1
Sa, 28.11. 14:00 1026 + 0,3
Sa, 28.11. 13:30 1026 + 0,5
Sa, 28.11. 13:00 1026 + 0,5
Sa, 28.11. 12:30 1026 + 0,5
Ortszeit Schneehöhe (cm)
Sa, 28.11. 13:00 0
Sa, 28.11. 7:00 0
Sa, 28.11. 1:00 0
Fr, 27.11. 19:00 0
Fr, 27.11. 13:00 0
Fr, 27.11. 7:00 0
Fr, 27.11. 1:00 0
Do, 26.11. 19:00 0
Ortszeit Schneehöhe (cm)
Sa, 28.11. 15:50 -
Sa, 28.11. 15:30 0
Sa, 28.11. 15:20 0
Sa, 28.11. 15:10 0
Sa, 28.11. 15:00 0
Sa, 28.11. 14:50 0
Sa, 28.11. 14:30 0
Sa, 28.11. 14:00 0
Sa, 28.11. 13:30 0
Sa, 28.11. 13:00 0
Sa, 28.11. 12:30 0
Link zu dieser Seite / Seite empfehlen

Das Wetter in ...